Time;durP1;ratioP1;P1;durP2;ratioP2;P2;SDS_P1;SDS_P2;PMS_P1;PMS_P2;Temp;Humidity;BMP_temperature;BMP_pressure;BME280_temperature;BME280_humidity;BME280_pressure;Samples;Min_cycle;Max_cycle;Signal;HPM_P1;HPM_P2
2023/09/21 00:01:57;;;;;;;6.47;2.95;;;;;;;16.31;69.03;100156.59;7396340;19;20023;-68
2023/09/21 00:04:26;;;;;;;7.85;5.18;;;;;;;16.28;68.97;100168.22;7395201;19;20018;-73
2023/09/21 00:06:57;;;;;;;8.05;4.07;;;;;;;16.28;68.83;100159.44;7396215;19;20039;-71
2023/09/21 00:09:28;;;;;;;5.80;2.85;;;;;;;16.25;69.11;100157.81;7395773;19;20014;-71
2023/09/21 00:11:56;;;;;;;5.85;3.97;;;;;;;16.24;69.28;100158.75;7396051;19;20038;-71
2023/09/21 00:14:25;;;;;;;4.40;2.47;;;;;;;16.20;69.11;100157.22;7394572;19;20025;-71
2023/09/21 00:16:54;;;;;;;4.00;2.20;;;;;;;16.19;69.15;100160.78;7395859;19;20082;-71
2023/09/21 00:19:23;;;;;;;5.22;2.83;;;;;;;16.17;69.27;100157.34;7395850;19;20042;-72
2023/09/21 00:21:54;;;;;;;2.83;2.40;;;;;;;16.15;69.37;100155.72;7395394;19;20027;-71
2023/09/21 00:24:25;;;;;;;4.43;2.22;;;;;;;16.11;69.48;100147.97;7394340;19;20015;-72
2023/09/21 00:26:53;;;;;;;3.88;2.42;;;;;;;16.10;69.78;100148.91;7395751;19;20014;-71
2023/09/21 00:29:22;;;;;;;4.85;2.60;;;;;;;16.07;70.00;100140.28;7395175;19;20013;-71
2023/09/21 00:31:51;;;;;;;4.13;3.00;;;;;;;16.03;69.84;100139.59;7395462;19;20015;-71
2023/09/21 00:34:19;;;;;;;4.43;2.70;;;;;;;16.03;70.10;100139.59;7393566;19;20367;-71
2023/09/21 00:36:49;;;;;;;4.35;3.03;;;;;;;16.02;70.27;100137.03;7394908;19;20024;-71
2023/09/21 00:39:18;;;;;;;5.28;2.60;;;;;;;16.00;70.24;100131.81;7393589;19;20419;-72
2023/09/21 00:41:49;;;;;;;3.22;2.60;;;;;;;15.97;70.24;100137.25;7392410;19;20382;-71
2023/09/21 00:44:17;;;;;;;3.83;2.53;;;;;;;15.95;70.51;100140.00;7393767;19;20014;-71
2023/09/21 00:46:46;;;;;;;3.10;2.15;;;;;;;15.93;70.63;100141.03;7393125;19;20010;-71
2023/09/21 00:49:17;;;;;;;3.45;2.22;;;;;;;15.90;70.67;100133.25;7395694;19;20028;-72
2023/09/21 00:51:47;;;;;;;4.30;2.63;;;;;;;15.89;70.64;100131.56;7397620;19;20014;-71
2023/09/21 00:54:16;;;;;;;5.10;2.60;;;;;;;15.86;70.88;100132.56;7395492;19;20355;-72
2023/09/21 00:56:44;;;;;;;2.50;2.30;;;;;;;15.86;70.55;100134.34;7394552;19;20500;-72
2023/09/21 00:59:16;;;;;;;4.93;2.72;;;;;;;15.83;70.95;100126.59;7392964;19;20023;-72
2023/09/21 01:01:45;;;;;;;2.67;2.47;;;;;;;15.82;70.83;100125.72;7395207;19;20361;-71
2023/09/21 01:04:14;;;;;;;4.43;2.53;;;;;;;15.78;71.05;100122.38;7392704;19;20070;-71
2023/09/21 01:06:43;;;;;;;3.83;2.35;;;;;;;15.77;71.23;100119.78;7392715;19;20014;-71
2023/09/21 01:09:13;;;;;;;8.88;2.83;;;;;;;15.74;71.23;100118.16;7392676;19;20011;-72
2023/09/21 01:11:42;;;;;;;4.07;2.42;;;;;;;15.72;71.39;100117.41;7392622;19;20369;-71
2023/09/21 01:14:10;;;;;;;3.33;2.20;;;;;;;15.70;71.29;100113.97;7392909;19;20015;-71
2023/09/21 01:16:41;;;;;;;4.70;2.65;;;;;;;15.69;71.28;100108.78;7394029;19;20104;-71
2023/09/21 01:19:10;;;;;;;4.53;2.20;;;;;;;15.67;71.24;100106.22;7392818;19;20014;-72
2023/09/21 01:21:44;;;;;;;3.10;2.10;;;;;;;15.64;71.32;100101.09;7393918;19;20380;-71
2023/09/21 01:24:15;;;;;;;2.67;1.92;;;;;;;15.63;71.58;100102.88;7392125;19;20018;-71
2023/09/21 01:26:44;;;;;;;6.78;2.90;;;;;;;15.61;71.50;100107.38;7393768;19;20023;-71
2023/09/21 01:29:14;;;;;;;4.80;2.50;;;;;;;15.60;71.83;100102.19;7394048;19;20078;-71
2023/09/21 01:31:43;;;;;;;4.07;2.33;;;;;;;15.58;71.78;100101.41;7394043;19;20021;-71
2023/09/21 01:34:12;;;;;;;3.03;2.30;;;;;;;15.57;71.71;100092.63;7391922;19;20038;-71
2023/09/21 01:36:40;;;;;;;4.22;2.33;;;;;;;15.55;72.02;100097.13;7393914;19;20011;-71
2023/09/21 01:39:10;;;;;;;4.90;2.30;;;;;;;15.53;71.99;100092.88;7391815;19;20075;-71
2023/09/21 01:41:41;;;;;;;3.47;2.05;;;;;;;15.52;71.91;100096.44;7393765;19;20021;-72
2023/09/21 01:44:10;;;;;;;3.15;2.10;;;;;;;15.50;72.32;100100.97;7390984;19;20545;-71
2023/09/21 01:46:38;;;;;;;2.60;1.88;;;;;;;15.47;72.33;100092.25;7393625;19;20014;-71
2023/09/21 01:49:12;;;;;;;2.45;2.13;;;;;;;15.44;72.26;100095.06;7391337;19;20090;-71
2023/09/21 01:51:41;;;;;;;2.63;2.00;;;;;;;15.43;72.13;100085.44;7395103;19;20014;-70
2023/09/21 01:54:10;;;;;;;4.15;2.58;;;;;;;15.41;72.29;100084.63;7398738;19;20020;-72
2023/09/21 01:56:41;;;;;;;1.92;1.70;;;;;;;15.40;72.52;100082.94;7400682;19;20026;-71
2023/09/21 01:59:10;;;;;;;9.43;2.78;;;;;;;15.38;72.47;100084.81;7398449;19;20014;-71
2023/09/21 02:01:41;;;;;;;2.58;2.25;;;;;;;15.37;72.43;100084.91;7400445;19;20014;-71
2023/09/21 02:04:11;;;;;;;5.07;2.50;;;;;;;15.35;72.82;100077.03;7399600;19;20438;-70
2023/09/21 02:06:40;;;;;;;4.00;2.72;;;;;;;15.32;72.45;100074.56;7404224;19;20541;-71
2023/09/21 02:09:09;;;;;;;4.85;2.90;;;;;;;15.33;72.83;100078.91;7400550;19;20019;-73
2023/09/21 02:11:37;;;;;;;3.15;1.90;;;;;;;15.30;72.65;100081.72;7400379;19;20014;-71
2023/09/21 02:14:09;;;;;;;4.30;2.45;;;;;;;15.27;72.99;100077.44;7397165;19;20522;-70
2023/09/21 02:16:37;;;;;;;6.50;2.40;;;;;;;15.25;73.11;100074.03;7398351;19;20087;-71
2023/09/21 02:19:06;;;;;;;4.40;2.70;;;;;;;15.23;72.82;100064.47;7396880;19;20391;-71
2023/09/21 02:21:34;;;;;;;4.97;3.70;;;;;;;15.20;73.29;100060.19;7399622;19;20014;-71
2023/09/21 02:24:04;;;;;;;4.10;2.28;;;;;;;15.18;73.19;100066.47;7398100;19;20013;-70
2023/09/21 02:26:37;;;;;;;5.65;2.53;;;;;;;15.15;73.45;100062.22;7400043;19;20034;-72
2023/09/21 02:29:06;;;;;;;4.82;2.13;;;;;;;15.13;73.25;100069.38;7399963;19;20031;-72
2023/09/21 02:31:37;;;;;;;5.80;2.38;;;;;;;15.07;73.44;100059.97;7399160;19;20010;-71
2023/09/21 02:34:06;;;;;;;5.78;2.72;;;;;;;15.07;73.67;100056.47;7397347;19;20490;-70
2023/09/21 02:36:34;;;;;;;3.55;2.55;;;;;;;15.05;73.58;100059.22;7399131;19;20415;-72
2023/09/21 02:39:08;;;;;;;3.75;2.85;;;;;;;15.03;73.75;100057.59;7396799;19;20019;-71
2023/09/21 02:41:37;;;;;;;3.53;2.03;;;;;;;15.00;73.92;100053.31;7399410;19;20014;-70
2023/09/21 02:44:07;;;;;;;3.13;2.70;;;;;;;14.97;73.68;100058.75;7396770;19;20015;-69
2023/09/21 02:46:38;;;;;;;2.55;2.08;;;;;;;14.95;73.73;100050.03;7398946;19;20015;-70
2023/09/21 02:49:07;;;;;;;3.47;2.22;;;;;;;14.93;73.67;100058.03;7399196;19;20079;-70
2023/09/21 02:51:38;;;;;;;4.13;2.38;;;;;;;14.88;74.13;100043.38;7398661;19;20017;-71
2023/09/21 02:54:11;;;;;;;4.28;2.50;;;;;;;14.88;74.15;100049.50;7397139;19;20461;-70
2023/09/21 02:56:39;;;;;;;3.30;2.50;;;;;;;14.85;74.08;100041.75;7398547;19;20037;-71
2023/09/21 02:59:08;;;;;;;5.20;2.67;;;;;;;14.82;74.10;100042.75;7396378;19;20023;-71
2023/09/21 03:01:41;;;;;;;3.15;2.53;;;;;;;14.80;74.29;100044.59;7398925;19;20018;-71
2023/09/21 03:04:11;;;;;;;4.82;2.40;;;;;;;14.79;74.19;100036.75;7393433;19;20358;-70
2023/09/21 03:06:42;;;;;;;4.05;2.40;;;;;;;14.77;74.57;100038.63;7395816;19;20482;-71
2023/09/21 03:09:11;;;;;;;3.30;2.58;;;;;;;14.75;74.73;100037.88;7398426;19;20028;-71
2023/09/21 03:11:39;;;;;;;4.60;2.70;;;;;;;14.73;74.54;100030.00;7395401;19;20010;-71
2023/09/21 03:14:08;;;;;;;3.67;2.65;;;;;;;14.71;74.38;100031.00;7396036;19;20078;-71
2023/09/21 03:16:42;;;;;;;4.20;2.72;;;;;;;14.68;74.50;100029.38;7397992;19;20031;-71
2023/09/21 03:19:11;;;;;;;4.10;2.85;;;;;;;14.66;74.92;100023.34;7398382;19;20020;-72
2023/09/21 03:21:40;;;;;;;5.82;2.92;;;;;;;14.64;74.82;100030.44;7397770;19;20018;-72
2023/09/21 03:24:09;;;;;;;2.92;2.33;;;;;;;14.62;74.73;100027.00;7396219;19;20042;-71
2023/09/21 03:26:45;;;;;;;3.92;2.90;;;;;;;14.59;75.06;100021.91;7397888;19;20018;-72
2023/09/21 03:29:13;;;;;;;3.90;2.72;;;;;;;14.57;75.12;100015.81;7397868;19;20025;-71
2023/09/21 03:31:44;;;;;;;3.22;2.33;;;;;;;14.55;74.77;100015.06;7397314;19;20027;-71
2023/09/21 03:34:12;;;;;;;7.32;3.63;;;;;;;14.52;74.96;100010.81;7395893;19;20010;-71
2023/09/21 03:36:41;;;;;;;3.05;2.55;;;;;;;14.49;75.12;100009.16;7397274;19;20014;-72
2023/09/21 03:39:12;;;;;;;4.65;2.55;;;;;;;14.47;75.14;100007.53;7395994;19;20090;-71
2023/09/21 03:41:46;;;;;;;3.65;2.70;;;;;;;14.45;75.27;100010.22;7396718;19;20015;-72
2023/09/21 03:44:14;;;;;;;3.92;2.85;;;;;;;14.43;75.38;100003.31;7395123;19;20022;-72
2023/09/21 03:46:45;;;;;;;4.18;2.65;;;;;;;14.40;75.34;99996.41;7395272;19;20018;-72
2023/09/21 03:49:15;;;;;;;2.40;2.20;;;;;;;14.38;75.42;99994.78;7396902;19;20418;-71
2023/09/21 03:51:43;;;;;;;3.40;2.72;;;;;;;14.37;75.74;100000.97;7397015;19;20541;-71
2023/09/21 03:54:16;;;;;;;5.03;2.50;;;;;;;14.34;75.70;99999.34;7395088;19;20026;-71
2023/09/21 03:56:44;;;;;;;3.70;2.67;;;;;;;14.33;75.68;99989.72;7395728;19;20014;-71
2023/09/21 03:59:17;;;;;;;4.32;2.90;;;;;;;14.30;75.92;99995.16;7394876;19;20043;-71
2023/09/21 04:01:48;;;;;;;7.25;3.10;;;;;;;14.26;75.98;99997.09;7395060;19;20178;-72
2023/09/21 04:04:18;;;;;;;5.13;3.20;;;;;;;14.26;75.75;99998.88;7394598;19;20007;-70
2023/09/21 04:06:46;;;;;;;5.10;3.25;;;;;;;14.24;75.97;99984.91;7396055;19;20015;-71
2023/09/21 04:09:16;;;;;;;5.18;2.70;;;;;;;14.22;76.21;99982.34;7396685;19;20078;-71
2023/09/21 04:11:44;;;;;;;5.05;3.28;;;;;;;14.21;76.12;99985.06;7395829;19;20011;-71
2023/09/21 04:14:12;;;;;;;7.32;3.92;;;;;;;14.16;76.30;99978.22;7394151;19;20423;-70
2023/09/21 04:16:41;;;;;;;6.78;3.20;;;;;;;14.16;76.50;99974.72;7395604;19;20023;-70
2023/09/21 04:19:14;;;;;;;5.40;3.33;;;;;;;14.14;76.59;99980.09;7393344;19;20073;-71
2023/09/21 04:21:43;;;;;;;7.15;4.63;;;;;;;14.13;76.73;99972.25;7396286;19;20425;-71
2023/09/21 04:24:14;;;;;;;7.25;3.70;;;;;;;14.11;76.47;99976.75;7394198;19;20022;-71
2023/09/21 04:26:43;;;;;;;7.38;3.60;;;;;;;14.09;76.68;99965.41;7397802;19;20018;-71
2023/09/21 04:29:15;;;;;;;5.05;3.10;;;;;;;14.08;76.95;99963.69;7395469;19;20011;-71
2023/09/21 04:31:44;;;;;;;4.65;2.95;;;;;;;14.05;76.63;99958.56;7394097;19;20018;-72
2023/09/21 04:34:15;;;;;;;13.88;8.85;;;;;;;14.03;76.91;99963.94;7393638;19;20080;-71
2023/09/21 04:36:43;;;;;;;11.85;6.88;;;;;;;14.01;76.80;99968.41;7394743;19;20498;-71
2023/09/21 04:39:14;;;;;;;10.07;5.82;;;;;;;13.99;76.94;99960.59;7392862;19;20014;-71
2023/09/21 04:41:44;;;;;;;5.55;4.22;;;;;;;13.99;77.08;99959.75;7394163;19;20524;-72
2023/09/21 04:44:12;;;;;;;4.75;3.38;;;;;;;13.98;77.00;99963.31;7393151;19;20019;-70
2023/09/21 04:46:42;;;;;;;9.50;4.97;;;;;;;13.96;77.26;99965.16;7394845;19;20015;-71
2023/09/21 04:49:10;;;;;;;7.30;5.28;;;;;;;13.97;77.29;99964.22;7395033;19;20028;-71
2023/09/21 04:51:41;;;;;;;7.47;4.18;;;;;;;13.95;77.29;99959.03;7394486;19;20027;-71
2023/09/21 04:54:10;;;;;;;7.10;4.00;;;;;;;13.95;77.33;99955.53;7392397;19;20481;-70
2023/09/21 04:56:39;;;;;;;7.10;3.80;;;;;;;13.93;77.42;99957.41;7393848;19;20006;-72
2023/09/21 04:59:08;;;;;;;8.25;4.32;;;;;;;13.92;77.41;99961.81;7392190;19;20015;-71
2023/09/21 05:01:36;;;;;;;13.00;7.55;;;;;;;13.90;77.54;99955.75;7393418;19;20509;-72
2023/09/21 05:04:04;;;;;;;11.63;6.25;;;;;;;13.90;77.32;99960.16;7392269;19;20070;-70
2023/09/21 05:06:33;;;;;;;6.68;4.22;;;;;;;13.88;77.78;99956.78;7391512;19;20070;-71
2023/09/21 05:09:04;;;;;;;6.80;3.85;;;;;;;13.85;77.63;99961.25;7392671;19;20074;-72
2023/09/21 05:11:38;;;;;;;11.93;4.80;;;;;;;13.87;77.77;99955.91;7393153;19;20082;-70
2023/09/21 05:14:08;;;;;;;11.07;5.28;;;;;;;13.87;77.80;99960.31;7391945;19;20014;-70
2023/09/21 05:16:37;;;;;;;7.25;4.15;;;;;;;13.84;78.07;99964.81;7391876;19;20038;-71
2023/09/21 05:19:08;;;;;;;9.82;4.72;;;;;;;13.86;77.72;99964.72;7393624;19;20027;-72
2023/09/21 05:21:37;;;;;;;6.80;4.28;;;;;;;13.86;78.05;99967.38;7393179;19;20015;-71
2023/09/21 05:24:10;;;;;;;10.43;4.15;;;;;;;13.87;77.97;99965.59;7391133;19;20019;-71
2023/09/21 05:26:38;;;;;;;6.85;4.30;;;;;;;13.87;78.09;99962.97;7391780;19;20025;-73
2023/09/21 05:29:08;;;;;;;7.28;3.92;;;;;;;13.88;78.25;99959.41;7403243;19;20103;-72
2023/09/21 05:31:37;;;;;;;9.05;5.00;;;;;;;13.88;78.12;99956.78;7409254;19;20007;-71
2023/09/21 05:34:05;;;;;;;6.88;4.50;;;;;;;13.89;78.35;99953.19;7405325;19;20014;-71
2023/09/21 05:36:34;;;;;;;10.63;5.05;;;;;;;13.90;78.29;99950.50;7400354;19;20077;-71
2023/09/21 05:39:04;;;;;;;6.88;4.50;;;;;;;13.91;78.31;99953.97;7397817;19;20014;-71
2023/09/21 05:41:35;;;;;;;9.25;3.92;;;;;;;13.93;78.45;99954.75;7399907;19;20015;-70
2023/09/21 05:44:03;;;;;;;4.97;3.75;;;;;;;13.95;78.55;99955.53;7398274;19;20086;-71
2023/09/21 05:46:32;;;;;;;8.32;4.70;;;;;;;13.99;78.43;99954.47;7397298;19;20027;-71
2023/09/21 05:49:03;;;;;;;8.00;3.75;;;;;;;14.00;78.75;99953.50;7400096;19;20014;-71
2023/09/21 05:51:32;;;;;;;10.18;4.20;;;;;;;14.04;78.52;99947.19;7400123;19;20489;-70
2023/09/21 05:54:00;;;;;;;4.88;3.30;;;;;;;14.08;78.89;99948.72;7397432;19;20494;-72
2023/09/21 05:56:39;;;;;;;6.63;3.72;;;;;;;14.12;78.69;99952.91;7400159;19;20482;-72
2023/09/21 05:59:07;;;;;;;4.93;2.80;;;;;;;14.16;78.49;99953.63;7400336;19;20034;-72
2023/09/21 06:01:36;;;;;;;2.95;2.65;;;;;;;14.21;78.56;99945.50;7399775;19;20027;-72
2023/09/21 06:04:04;;;;;;;7.18;3.47;;;;;;;14.27;78.51;99942.56;7398163;19;20032;-71
2023/09/21 06:06:34;;;;;;;9.40;3.63;;;;;;;14.31;78.54;99942.31;7397534;19;20017;-71
2023/09/21 06:09:02;;;;;;;8.13;3.47;;;;;;;14.39;78.53;99935.78;7399466;19;20352;-71
2023/09/21 06:11:30;;;;;;;5.50;3.55;;;;;;;14.45;78.46;99940.78;7399818;19;20035;-70
2023/09/21 06:14:02;;;;;;;7.35;3.70;;;;;;;14.52;78.50;99936.03;7398266;19;20082;-72
2023/09/21 06:16:32;;;;;;;5.95;3.42;;;;;;;14.60;78.47;99944.41;7399375;19;20010;-72
2023/09/21 06:19:01;;;;;;;4.43;2.80;;;;;;;14.65;78.46;99937.97;7399936;19;20347;-72
2023/09/21 06:21:30;;;;;;;4.05;2.80;;;;;;;14.74;78.30;99934.00;7399424;19;20014;-72
2023/09/21 06:23:59;;;;;;;3.78;2.50;;;;;;;14.80;78.20;99924.94;7397660;19;20018;-71
2023/09/21 06:26:27;;;;;;;6.28;2.72;;;;;;;14.91;78.16;99932.28;7397481;19;20027;-71
2023/09/21 06:28:55;;;;;;;5.18;3.08;;;;;;;15.00;78.26;99929.16;7398901;19;20035;-71
2023/09/21 06:31:27;;;;;;;3.47;2.80;;;;;;;15.09;77.80;99923.38;7398528;19;20023;-71
2023/09/21 06:33:57;;;;;;;5.30;3.10;;;;;;;15.20;77.95;99922.78;7397441;19;20074;-71
2023/09/21 06:36:28;;;;;;;5.50;3.88;;;;;;;15.31;77.63;99930.97;7396253;19;20070;-71
2023/09/21 06:38:57;;;;;;;5.93;2.67;;;;;;;15.41;77.26;99926.06;7395795;19;20038;-71
2023/09/21 06:41:26;;;;;;;6.78;3.03;;;;;;;15.52;77.33;99927.25;7399267;19;20011;-72
2023/09/21 06:43:55;;;;;;;6.88;3.13;;;;;;;15.63;77.06;99925.72;7396829;19;20550;-71
2023/09/21 06:46:26;;;;;;;4.65;2.92;;;;;;;15.74;76.87;99917.19;7396719;19;20014;-72
2023/09/21 06:48:55;;;;;;;9.20;3.58;;;;;;;15.86;76.70;99925.38;7398856;19;20066;-71
2023/09/21 06:51:24;;;;;;;5.70;3.35;;;;;;;15.96;76.54;99915.97;7398127;19;20014;-71
2023/09/21 06:53:53;;;;;;;3.60;3.10;;;;;;;16.05;76.22;99919.88;7396251;19;20018;-70
2023/09/21 06:56:23;;;;;;;9.10;4.22;;;;;;;16.15;76.00;99918.44;7397678;19;20015;-70
2023/09/21 06:58:52;;;;;;;5.45;2.92;;;;;;;16.24;75.96;99915.25;7397353;19;20020;-71
2023/09/21 07:01:21;;;;;;;4.35;3.13;;;;;;;16.32;75.80;99912.16;7397258;19;20439;-71
2023/09/21 07:03:58;;;;;;;7.00;3.35;;;;;;;16.41;75.81;99916.88;7396211;19;20014;-72
2023/09/21 07:06:27;;;;;;;7.30;3.20;;;;;;;16.51;75.61;99914.56;7395271;19;20006;-71
2023/09/21 07:08:57;;;;;;;5.78;3.00;;;;;;;16.59;75.04;99916.72;7398094;19;20070;-72
2023/09/21 07:11:26;;;;;;;4.90;2.30;;;;;;;16.67;75.33;99914.50;7397488;19;20010;-71
2023/09/21 07:13:54;;;;;;;4.07;2.80;;;;;;;16.76;75.14;99911.28;7395529;19;20529;-72
2023/09/21 07:16:23;;;;;;;4.18;2.83;;;;;;;16.85;75.02;99904.56;7397263;19;20018;-71
2023/09/21 07:18:54;;;;;;;4.15;2.08;;;;;;;16.94;74.54;99904.00;7398084;19;20010;-71
2023/09/21 07:21:22;;;;;;;5.80;3.33;;;;;;;17.04;74.13;99906.13;7397252;19;20017;-72
2023/09/21 07:23:51;;;;;;;3.80;2.17;;;;;;;17.13;74.31;99904.69;7396236;19;20099;-72
2023/09/21 07:26:19;;;;;;;4.43;2.22;;;;;;;17.21;74.17;99903.25;7396084;19;20014;-72
2023/09/21 07:28:47;;;;;;;4.93;2.65;;;;;;;17.31;73.84;99895.56;7396023;19;20477;-71
2023/09/21 07:31:16;;;;;;;3.95;2.60;;;;;;;17.40;73.56;99897.66;7397040;19;20077;-71
2023/09/21 07:33:45;;;;;;;4.28;2.30;;;;;;;17.49;73.41;99892.69;7395978;19;20073;-71
2023/09/21 07:36:16;;;;;;;2.97;2.33;;;;;;;17.56;73.16;99884.22;7394213;19;20356;-72
2023/09/21 07:38:45;;;;;;;3.85;2.33;;;;;;;17.65;72.93;99890.75;7395094;19;20086;-71
2023/09/21 07:41:13;;;;;;;5.60;2.38;;;;;;;17.74;72.59;99889.28;7396456;19;20482;-71
2023/09/21 07:43:42;;;;;;;2.47;1.90;;;;;;;17.83;72.29;99882.53;7395345;19;20018;-71
2023/09/21 07:46:10;;;;;;;4.65;1.90;;;;;;;17.92;72.32;99884.59;7394995;19;20078;-71
2023/09/21 07:48:39;;;;;;;3.58;1.77;;;;;;;18.01;72.20;99883.19;7396944;19;20007;-73
2023/09/21 07:51:08;;;;;;;4.28;2.60;;;;;;;18.11;71.49;99878.06;7395358;19;20027;-71
2023/09/21 07:53:40;;;;;;;4.75;2.33;;;;;;;18.22;71.67;99872.91;7395014;19;20038;-70
2023/09/21 07:56:12;;;;;;;6.03;2.10;;;;;;;18.32;71.18;99873.97;7396759;19;20046;-71
2023/09/21 07:58:40;;;;;;;3.88;2.15;;;;;;;18.43;70.58;99873.25;7396105;19;20010;-71
2023/09/21 08:01:09;;;;;;;2.78;2.00;;;;;;;18.54;70.07;99870.69;7396327;19;20074;-71
2023/09/21 08:03:37;;;;;;;2.47;1.75;;;;;;;18.65;69.98;99872.63;7394970;19;20021;-71
2023/09/21 08:06:07;;;;;;;3.88;1.83;;;;;;;18.75;69.60;99866.66;7394897;19;20074;-71
2023/09/21 08:08:35;;;;;;;3.85;2.40;;;;;;;18.84;69.25;99861.56;7396044;19;20007;-72
2023/09/21 08:11:06;;;;;;;4.43;2.13;;;;;;;18.95;69.13;99865.28;7395838;19;20006;-70
2023/09/21 08:13:35;;;;;;;4.25;1.83;;;;;;;19.04;68.60;99864.63;7395584;19;20097;-70
2023/09/21 08:16:03;;;;;;;2.55;1.90;;;;;;;19.14;68.21;99865.66;7396159;19;20070;-73
2023/09/21 08:18:36;;;;;;;3.70;2.03;;;;;;;19.25;68.14;99864.91;7395806;19;20002;-71
2023/09/21 08:21:04;;;;;;;7.50;2.95;;;;;;;19.36;67.38;99867.63;7395876;19;20024;-72
2023/09/21 08:23:33;;;;;;;3.47;2.00;;;;;;;19.47;66.96;99868.66;7394402;19;20027;-72
2023/09/21 08:26:02;;;;;;;3.17;2.17;;;;;;;19.56;66.64;99865.31;7395346;19;20496;-73
2023/09/21 08:28:34;;;;;;;4.78;2.33;;;;;;;19.65;66.80;99867.31;7395926;19;20030;-71
2023/09/21 08:31:02;;;;;;;4.25;1.85;;;;;;;19.74;66.59;99856.94;7395901;19;20031;-70
2023/09/21 08:33:31;;;;;;;4.38;2.05;;;;;;;19.83;65.88;99864.28;7394828;19;20006;-72
2023/09/21 08:35:59;;;;;;;4.13;2.25;;;;;;;19.93;65.67;99864.44;7393208;19;20379;-71
2023/09/21 08:38:28;;;;;;;4.13;1.95;;;;;;;20.02;65.62;99867.25;7394179;19;20023;-72
2023/09/21 08:40:58;;;;;;;6.32;1.98;;;;;;;20.13;65.27;99866.47;7393320;19;20011;-72
2023/09/21 08:43:27;;;;;;;1.85;1.60;;;;;;;20.22;65.06;99867.56;7393810;19;20014;-71
2023/09/21 08:45:59;;;;;;;2.05;1.77;;;;;;;20.31;64.67;99869.53;7394536;19;20018;-71
2023/09/21 08:48:29;;;;;;;3.97;1.90;;;;;;;20.40;64.27;99867.13;7395258;19;20074;-71
2023/09/21 08:51:00;;;;;;;2.80;2.00;;;;;;;20.46;63.60;99863.97;7394767;19;20025;-70
2023/09/21 08:53:29;;;;;;;3.70;1.90;;;;;;;20.55;63.61;99865.94;7393921;19;20080;-71
2023/09/21 08:55:59;;;;;;;3.00;1.90;;;;;;;20.62;63.52;99867.13;7394384;19;20098;-70
2023/09/21 08:58:34;;;;;;;3.80;1.88;;;;;;;20.67;63.29;99865.00;7394442;19;20022;-70
2023/09/21 09:01:05;;;;;;;3.60;1.80;;;;;;;20.79;62.70;99862.38;7394721;19;20026;-71
2023/09/21 09:03:33;;;;;;;3.85;1.80;;;;;;;20.89;62.49;99865.13;7400180;19;20070;-71
2023/09/21 09:06:04;;;;;;;4.18;1.80;;;;;;;20.98;61.92;99872.41;7400847;19;20108;-70
2023/09/21 09:08:32;;;;;;;3.53;2.00;;;;;;;21.06;61.76;99864.63;7400317;19;20029;-71
2023/09/21 09:11:01;;;;;;;2.67;1.73;;;;;;;21.15;61.15;99857.72;7401868;19;20077;-71
2023/09/21 09:13:33;;;;;;;2.38;1.70;;;;;;;21.27;60.94;99858.56;7399378;19;20078;-70
2023/09/21 09:16:05;;;;;;;4.70;2.10;;;;;;;21.35;60.76;99848.09;7400947;19;20422;-70
2023/09/21 09:18:35;;;;;;;2.55;1.77;;;;;;;21.44;60.29;99857.19;7403082;19;20026;-72
2023/09/21 09:21:04;;;;;;;4.60;1.83;;;;;;;21.53;60.04;99852.91;7401252;19;20030;-71
2023/09/21 09:23:33;;;;;;;1.92;1.50;;;;;;;21.60;59.63;99846.97;7400118;19;20038;-71
2023/09/21 09:26:11;;;;;;;3.13;1.65;;;;;;;21.70;59.19;99849.75;7400447;19;20509;-71
2023/09/21 09:28:47;;;;;;;3.35;1.45;;;;;;;21.78;59.16;99843.75;7401660;19;20074;-69
2023/09/21 09:31:18;;;;;;;2.92;1.67;;;;;;;21.86;59.07;99843.13;7402167;19;20014;-69
2023/09/21 09:33:48;;;;;;;3.47;1.60;;;;;;;21.94;58.80;99836.16;7399892;19;20017;-68
2023/09/21 09:36:17;;;;;;;3.65;1.70;;;;;;;22.05;58.09;99829.06;7400598;19;20011;-68
2023/09/21 09:38:45;;;;;;;3.47;1.60;;;;;;;22.15;57.62;99832.63;7398953;19;20083;-70
2023/09/21 09:41:16;;;;;;;5.43;1.70;;;;;;;22.23;57.31;99821.28;7400078;19;20513;-68
2023/09/21 09:43:48;;;;;;;3.10;1.45;;;;;;;22.34;56.80;99820.38;7399553;19;20014;-69
2023/09/21 09:46:23;;;;;;;5.03;1.60;;;;;;;22.42;56.59;99815.28;7400276;19;20024;-69
2023/09/21 09:48:53;;;;;;;7.22;1.85;;;;;;;22.49;56.47;99821.75;7400972;19;20010;-69
2023/09/21 09:51:31;;;;;;;3.20;1.52;;;;;;;22.57;55.81;99807.72;7400201;19;20433;-69
2023/09/21 09:54:01;;;;;;;4.40;1.88;;;;;;;22.64;56.30;99803.53;7398840;19;20077;-68
2023/09/21 09:56:30;;;;;;;2.58;1.95;;;;;;;22.71;56.04;99799.34;7397442;19;20010;-69
2023/09/21 09:59:01;;;;;;;7.97;1.77;;;;;;;22.81;55.79;99809.22;7400321;19;20075;-69
2023/09/21 10:01:37;;;;;;;9.55;1.83;;;;;;;22.90;55.35;99803.94;7399737;19;20070;-69
2023/09/21 10:04:08;;;;;;;3.40;1.80;;;;;;;22.99;54.69;99802.25;7398046;19;20026;-70
2023/09/21 10:06:37;;;;;;;3.85;1.60;;;;;;;23.07;54.52;99791.72;7398939;19;20025;-69
2023/09/21 10:09:10;;;;;;;3.45;2.05;;;;;;;23.15;53.48;99790.19;7399895;19;20010;-68
2023/09/21 10:11:42;;;;;;;3.95;1.95;;;;;;;23.23;53.12;99793.06;7397929;19;20014;-70
2023/09/21 10:14:11;;;;;;;3.58;2.00;;;;;;;23.32;53.23;99796.72;7396370;19;20038;-69
2023/09/21 10:16:49;;;;;;;6.10;2.08;;;;;;;23.40;52.17;99794.19;7399649;19;20014;-69
2023/09/21 10:19:26;;;;;;;3.10;2.22;;;;;;;23.50;51.63;99789.69;7397764;19;20066;-69
2023/09/21 10:21:59;;;;;;;6.70;1.58;;;;;;;23.56;51.25;99783.75;7400027;19;20018;-70
2023/09/21 10:24:31;;;;;;;5.53;1.63;;;;;;;23.64;50.96;99784.91;7397112;19;20014;-68
2023/09/21 10:27:03;;;;;;;2.70;1.45;;;;;;;23.74;50.28;99780.38;7397374;19;20014;-70
2023/09/21 10:29:36;;;;;;;2.97;0.90;;;;;;;23.83;50.00;99767.97;7399453;19;20021;-70
2023/09/21 10:32:09;;;;;;;2.95;1.60;;;;;;;23.91;49.42;99762.78;7396402;19;20354;-70
2023/09/21 10:34:45;;;;;;;2.10;1.42;;;;;;;24.00;49.38;99759.22;7396263;19;20075;-69
2023/09/21 10:37:15;;;;;;;3.65;1.48;;;;;;;24.08;48.58;99753.97;7397116;19;20007;-69
2023/09/21 10:39:47;;;;;;;2.00;1.50;;;;;;;24.17;48.38;99744.22;7396770;19;20025;-69
2023/09/21 10:42:33;;;;;;;3.35;1.58;;;;;;;24.26;47.03;99739.00;7398730;19;20010;-70
2023/09/21 10:45:07;;;;;;;8.02;2.03;;;;;;;24.35;47.86;99744.34;7400965;19;20019;-71
2023/09/21 10:47:40;;;;;;;;;;;;;;;24.43;45.83;99748.09;7398346;19;20359;-69
2023/09/21 10:50:11;;;;;;;3.22;1.02;;;;;;;24.52;47.31;99747.22;7400081;19;20332;-70
2023/09/21 10:52:44;;;;;;;2.47;1.38;;;;;;;24.60;46.61;99744.63;7396991;19;20010;-69
2023/09/21 10:55:15;;;;;;;1.77;1.02;;;;;;;24.71;46.61;99740.94;7396190;19;20014;-70
2023/09/21 10:57:44;;;;;;;2.05;1.20;;;;;;;24.79;45.84;99742.88;7398176;19;20014;-71
2023/09/21 11:00:21;;;;;;;2.60;1.45;;;;;;;24.88;45.53;99736.59;7397957;19;20006;-69
2023/09/21 11:02:54;;;;;;;2.85;1.52;;;;;;;24.97;44.64;99729.47;7398272;19;20029;-70
2023/09/21 11:05:23;;;;;;;4.45;1.63;;;;;;;25.05;45.01;99725.03;7396210;19;20023;-69
2023/09/21 11:07:55;;;;;;;1.65;1.25;;;;;;;25.12;44.52;99727.94;7395673;19;20107;-70
2023/09/21 11:10:23;;;;;;;4.18;1.35;;;;;;;25.19;44.35;99728.22;7397935;19;20369;-70
2023/09/21 11:12:52;;;;;;;1.80;1.00;;;;;;;25.27;44.05;99722.91;7396225;19;20499;-72
2023/09/21 11:15:20;;;;;;;1.77;1.30;;;;;;;25.33;44.02;99726.81;7395128;19;20014;-70
2023/09/21 11:17:52;;;;;;;3.17;1.33;;;;;;;25.39;43.63;99720.88;7395305;19;20078;-70
2023/09/21 11:20:21;;;;;;;3.55;1.45;;;;;;;25.47;43.58;99715.56;7397419;19;20031;-70
2023/09/21 11:22:51;;;;;;;3.60;2.15;;;;;;;25.53;43.44;99703.38;7396260;19;20024;-70
2023/09/21 11:25:22;;;;;;;2.70;1.42;;;;;;;25.57;43.03;99702.03;7391627;19;20046;-70
2023/09/21 11:27:51;;;;;;;2.55;1.70;;;;;;;25.61;43.46;99700.72;7395588;19;20034;-70
2023/09/21 11:30:22;;;;;;;2.17;1.13;;;;;;;25.67;43.23;99694.72;7397144;19;20015;-70
2023/09/21 11:32:54;;;;;;;2.72;1.63;;;;;;;25.73;42.16;99698.66;7396763;19;20014;-68
2023/09/21 11:35:24;;;;;;;3.28;1.92;;;;;;;25.80;42.63;99697.00;7396665;19;20027;-67
2023/09/21 11:37:53;;;;;;;3.22;1.20;;;;;;;25.88;42.24;99696.19;7397358;19;20021;-67
2023/09/21 11:40:24;;;;;;;2.75;1.90;;;;;;;25.93;42.29;99683.16;7394321;19;20035;-69
2023/09/21 11:42:53;;;;;;;4.22;1.90;;;;;;;26.00;41.44;99688.72;7396323;19;20021;-70
2023/09/21 11:45:24;;;;;;;6.93;1.35;;;;;;;26.10;40.84;99683.28;7396392;19;20077;-68